Time;durP1;ratioP1;P1;durP2;ratioP2;P2;SDS_P1;SDS_P2;PMS_P1;PMS_P2;Temp;Humidity;BMP_temperature;BMP_pressure;BME280_temperature;BME280_humidity;BME280_pressure;Samples;Min_cycle;Max_cycle;Signal;HPM_P1;HPM_P2
2023/03/13 00:00:54;;;;;;;;;4.50;4.50;;;;;14.07;63.63;100308.75;5006298;28;45237;-65
2023/03/13 00:03:19;;;;;;;;;4.75;4.75;;;;;14.14;63.96;100309.41;5003770;28;46329;-65
2023/03/13 00:05:44;;;;;;;;;6.00;5.75;;;;;14.14;64.25;100304.13;5017794;28;45149;-65
2023/03/13 00:08:10;;;;;;;;;6.50;5.00;;;;;14.14;64.40;100288.28;5017935;28;45700;-65
2023/03/13 00:10:37;;;;;;;;;6.75;4.75;;;;;14.16;63.77;100289.06;5017622;28;45451;-65
2023/03/13 00:13:03;;;;;;;;;4.00;4.00;;;;;14.14;64.15;100281.19;5017481;28;47781;-65
2023/03/13 00:15:28;;;;;;;;;4.75;4.75;;;;;14.17;63.96;100284.66;5016735;28;45314;-65
2023/03/13 00:17:53;;;;;;;;;4.50;4.50;;;;;14.18;64.62;100275.81;5017669;28;45550;-65
2023/03/13 00:20:18;;;;;;;;;3.75;3.50;;;;;14.19;64.28;100274.88;5017324;28;52940;-65
2023/03/13 00:22:44;;;;;;;;;3.00;3.00;;;;;14.19;63.98;100280.16;5016237;28;48633;-65
2023/03/13 00:25:09;;;;;;;;;5.25;5.25;;;;;14.21;64.07;100286.25;5017618;28;45556;-65
2023/03/13 00:27:34;;;;;;;;;4.50;4.50;;;;;14.20;64.42;100277.47;5017661;28;45532;-65
2023/03/13 00:30:00;;;;;;;;;2.50;2.50;;;;;14.21;64.08;100267.75;5017720;28;45257;-65
2023/03/13 00:32:25;;;;;;;;;3.00;2.00;;;;;14.23;64.20;100268.56;5016057;28;48475;-65
2023/03/13 00:34:50;;;;;;;;;2.00;2.00;;;;;14.24;64.14;100273.78;5017747;28;45442;-65
2023/03/13 00:37:16;;;;;;;;;4.25;3.50;;;;;14.26;64.49;100265.81;5017370;28;45404;-64
2023/03/13 00:39:41;;;;;;;;;3.25;3.25;;;;;14.27;64.58;100264.88;5015343;28;48637;-64
2023/03/13 00:42:07;;;;;;;;;2.50;2.50;;;;;14.26;64.55;100264.03;5017195;28;46711;-64
2023/03/13 00:44:32;;;;;;;;;2.25;2.00;;;;;14.29;64.61;100248.06;5017562;28;45252;-65
2023/03/13 00:46:57;;;;;;;;;4.25;3.00;;;;;14.30;64.30;100247.16;5016159;28;45372;-65
2023/03/13 00:49:23;;;;;;;;;2.00;2.00;;;;;14.32;64.59;100241.78;5011402;28;45324;-65
2023/03/13 00:51:48;;;;;;;;;2.00;2.00;;;;;14.33;64.72;100237.38;5002035;28;45158;-65
2023/03/13 00:54:13;;;;;;;;;2.25;1.50;;;;;14.35;64.07;100244.34;5017277;28;45266;-65
2023/03/13 00:56:38;;;;;;;;;4.00;3.00;;;;;14.35;63.91;100254.91;5017366;28;45215;-65
2023/03/13 00:59:04;;;;;;;;;3.00;3.00;;;;;14.33;64.50;100237.38;5016920;28;53736;-65
2023/03/13 01:01:31;;;;;;;;;3.50;3.25;;;;;14.34;64.89;100239.97;5015777;28;45829;-65
2023/03/13 01:04:09;;;;;;;;;2.75;2.00;;;;;14.35;64.53;100238.16;5017307;28;45337;-65
2023/03/13 01:06:37;;;;;;;;;2.00;2.00;;;;;14.37;64.13;100252.19;5017017;28;45416;-65
2023/03/13 01:09:04;;;;;;;;;5.00;4.25;;;;;14.38;64.29;100246.84;5017009;28;45455;-66
2023/03/13 01:11:37;;;;;;;;;4.25;4.25;;;;;14.39;64.52;100263.56;5016902;28;47127;-65
2023/03/13 01:14:05;;;;;;;;;3.25;3.25;;;;;14.39;64.44;100248.59;5017001;28;45172;-65
2023/03/13 01:16:33;;;;;;;;;3.25;3.25;;;;;14.40;64.25;100233.56;5032442;28;45287;-65
2023/03/13 01:19:01;;;;;;;;;3.25;3.25;;;;;14.41;64.30;100230.00;5016953;28;45241;-65
2023/03/13 01:21:27;;;;;;;;;4.25;4.25;;;;;14.41;64.70;100208.88;5016785;28;46276;-65
2023/03/13 01:23:53;;;;;;;;;4.00;4.00;;;;;14.42;64.68;100210.59;5019799;28;45249;-65
2023/03/13 01:26:20;;;;;;;;;5.75;4.00;;;;;14.41;65.04;100203.56;5020126;28;45242;-65
2023/03/13 01:28:46;;;;;;;;;5.75;5.75;;;;;14.41;64.37;100208.88;5019675;28;45466;-65
2023/03/13 01:31:17;;;;;;;;;6.00;3.75;;;;;14.42;64.74;100195.56;5018628;28;46994;-65
2023/03/13 01:33:44;;;;;;;;;7.25;4.00;;;;;14.41;64.46;100182.44;5035220;28;45733;-65
2023/03/13 01:36:10;;;;;;;;;3.25;3.25;;;;;14.42;64.80;100174.44;5019686;28;45304;-65
2023/03/13 01:38:37;;;;;;;;;6.75;6.75;;;;;14.42;64.61;100158.56;5019419;28;45169;-65
2023/03/13 01:41:04;;;;;;;;;4.00;4.00;;;;;14.42;64.77;100189.44;5019570;28;45421;-65
2023/03/13 01:43:32;;;;;;;;;7.50;5.25;;;;;14.43;64.71;100193.81;5019523;28;45337;-65
2023/03/13 01:46:02;;;;;;;;;6.75;4.75;;;;;14.43;64.66;100217.59;5018606;28;45323;-65
2023/03/13 01:48:30;;;;;;;;;3.00;3.00;;;;;14.43;64.45;100217.59;5018180;28;45456;-65
2023/03/13 01:50:59;;;;;;;;;4.00;4.00;;;;;14.44;64.53;100214.06;4996133;27;47698;-65
2023/03/13 01:53:25;;;;;;;;;5.00;3.50;;;;;14.44;64.55;100198.19;5014860;28;45448;-65
2023/03/13 01:55:54;;;;;;;;;8.25;5.00;;;;;14.42;64.56;100200.00;5034955;28;45421;-65
2023/03/13 01:58:19;;;;;;;;;8.25;6.00;;;;;14.42;64.54;100187.66;5019309;28;45264;-65
2023/03/13 02:00:45;;;;;;;;;7.00;5.00;;;;;14.44;64.32;100171.75;5008685;28;46153;-65
2023/03/13 02:03:16;;;;;;;;;6.50;5.50;;;;;14.43;64.69;100160.31;5004382;28;45425;-65
2023/03/13 02:05:42;;;;;;;;;5.75;4.25;;;;;14.43;64.27;100162.94;5019287;28;45384;-65
2023/03/13 02:08:17;;;;;;;;;7.75;5.00;;;;;14.43;64.63;100160.31;5019204;28;45584;-65
2023/03/13 02:10:52;;;;;;;;;7.00;5.75;;;;;14.44;64.65;100158.53;5019205;28;46131;-65
2023/03/13 02:13:19;;;;;;;;;5.50;5.50;;;;;14.44;64.54;100161.19;5019392;28;45385;-65
2023/03/13 02:15:45;;;;;;;;;5.75;5.75;;;;;14.42;64.36;100155.09;5019208;28;45335;-65
2023/03/13 02:18:12;;;;;;;;;9.75;5.75;;;;;14.42;64.35;100157.72;5018300;28;45315;-65
2023/03/13 02:20:38;;;;;;;;;6.00;6.00;;;;;14.42;64.71;100149.78;5018715;28;46395;-65
2023/03/13 02:23:18;;;;;;;;;5.00;4.75;;;;;14.43;64.63;100162.09;5019190;28;45223;-65
2023/03/13 02:25:53;;;;;;;;;5.75;5.25;;;;;14.41;64.49;100172.69;5019074;28;45337;-65
2023/03/13 02:28:26;;;;;;;;;8.00;6.25;;;;;14.41;64.74;100166.56;5019131;28;45332;-65
2023/03/13 02:30:55;;;;;;;;;5.75;5.50;;;;;14.35;64.82;100129.81;5018941;28;46224;-65
2023/03/13 02:33:25;;;;;;;;;7.50;6.75;;;;;14.42;64.70;100152.44;5017783;28;45382;-65
2023/03/13 02:35:52;;;;;;;;;6.00;5.00;;;;;14.41;65.11;100137.50;5018964;28;45519;-65
2023/03/13 02:38:23;;;;;;;;;10.25;8.75;;;;;14.42;64.59;100133.94;5019062;28;45333;-65
2023/03/13 02:40:51;;;;;;;;;6.75;4.75;;;;;14.42;64.29;100126.00;5018903;28;45276;-66
2023/03/13 02:43:25;;;;;;;;;8.50;7.50;;;;;14.44;64.50;100119.72;5017734;28;45424;-65
2023/03/13 02:46:10;;;;;;;;;5.00;5.00;;;;;14.43;64.76;100125.09;5019185;28;45253;-65
2023/03/13 02:48:42;;;;;;;;;6.00;6.00;;;;;14.41;64.65;100130.41;5018569;28;45325;-65
2023/03/13 02:51:16;;;;;;;;;7.25;6.00;;;;;14.43;64.52;100128.56;4990980;28;46375;-65
2023/03/13 02:53:42;;;;;;;;;6.00;4.75;;;;;14.43;64.55;100138.31;5018826;28;45369;-65
2023/03/13 02:56:07;;;;;;;;;8.50;4.75;;;;;14.43;64.47;100133.03;5018880;28;45402;-66
2023/03/13 02:58:43;;;;;;;;;6.25;5.50;;;;;14.44;64.42;100132.09;5018836;28;45229;-65
2023/03/13 03:01:08;;;;;;;;;8.50;6.00;;;;;14.43;64.20;100127.72;5004673;28;47036;-65
2023/03/13 03:03:37;;;;;;;;;5.50;5.00;;;;;14.43;64.30;100119.81;5006698;28;45220;-66
2023/03/13 03:06:04;;;;;;;;;8.00;6.75;;;;;14.42;64.71;100136.56;5018576;28;45250;-65
2023/03/13 03:08:30;;;;;;;;;5.75;5.75;;;;;14.43;64.75;100115.38;5018668;28;45335;-65
2023/03/13 03:10:55;;;;;;;;;7.75;6.00;;;;;14.42;64.54;100141.88;5018249;28;45383;-65
2023/03/13 03:13:21;;;;;;;;;6.25;5.00;;;;;14.41;64.74;100103.97;5018565;28;45365;-65
2023/03/13 03:15:46;;;;;;;;;9.50;6.75;;;;;14.40;64.71;100096.13;5018550;28;45318;-65
2023/03/13 03:18:12;;;;;;;;;8.25;6.25;;;;;14.41;64.25;100098.69;5017369;28;45254;-65
2023/03/13 03:20:37;;;;;;;;;8.00;6.00;;;;;14.35;64.38;100076.94;5017762;28;55815;-65
2023/03/13 03:23:02;;;;;;;;;8.25;6.00;;;;;14.42;64.61;100096.94;5018795;28;45137;-65
2023/03/13 03:25:27;;;;;;;;;10.00;7.75;;;;;14.41;64.32;100101.34;5018494;28;45297;-66
2023/03/13 03:27:53;;;;;;;;;6.00;6.00;;;;;14.43;64.29;100096.00;5018287;28;50837;-65
2023/03/13 03:30:18;;;;;;;;;8.00;6.50;;;;;14.40;64.06;100102.28;5018302;28;45208;-65
2023/03/13 03:32:43;;;;;;;;;5.50;3.75;;;;;14.44;64.58;100108.31;5017189;28;45202;-65
2023/03/13 03:35:09;;;;;;;;;7.50;5.00;;;;;14.42;64.38;100116.28;5017017;28;45250;-66
2023/03/13 03:37:34;;;;;;;;;6.50;4.75;;;;;14.42;64.21;100108.34;5018321;28;45211;-66
2023/03/13 03:39:59;;;;;;;;;6.00;5.00;;;;;14.44;64.10;100113.59;5016255;28;53835;-66
2023/03/13 03:42:25;;;;;;;;;6.25;6.00;;;;;14.43;64.11;100090.72;5017796;28;45241;-66
2023/03/13 03:44:50;;;;;;;;;5.75;5.50;;;;;14.43;64.36;100096.00;5017798;28;45228;-66
2023/03/13 03:47:16;;;;;;;;;9.00;9.00;;;;;14.44;64.16;100108.31;5017413;28;56062;-66
2023/03/13 03:49:41;;;;;;;;;10.00;8.75;;;;;14.44;64.16;100110.97;5009675;28;45476;-66
2023/03/13 03:52:06;;;;;;;;;6.00;6.00;;;;;14.43;64.42;100125.09;5004740;28;45345;-66
2023/03/13 03:54:32;;;;;;;;;8.00;7.00;;;;;14.43;64.73;100112.72;5018320;28;45302;-66
2023/03/13 03:56:57;;;;;;;;;10.50;7.00;;;;;14.43;64.17;100118.00;5018015;28;45562;-65
2023/03/13 03:59:22;;;;;;;;;8.75;8.00;;;;;14.43;64.33;100125.94;5018132;28;45289;-65
2023/03/13 04:01:48;;;;;;;;;6.75;6.50;;;;;14.44;64.34;100114.44;4998581;28;45252;-66
2023/03/13 04:04:13;;;;;;;;;5.00;5.00;;;;;14.44;64.77;100111.81;5026633;28;45323;-65
2023/03/13 04:06:38;;;;;;;;;6.25;6.00;;;;;14.46;64.30;100117.03;5017799;28;45293;-65
2023/03/13 04:09:04;;;;;;;;;9.75;6.00;;;;;14.44;64.29;100103.03;5017704;28;46266;-65
2023/03/13 04:11:29;;;;;;;;;5.50;5.50;;;;;14.46;64.49;100093.22;5017957;28;45321;-65
2023/03/13 04:13:55;;;;;;;;;6.00;6.00;;;;;14.46;64.24;100117.03;5018199;28;45281;-65
2023/03/13 04:16:20;;;;;;;;;7.50;5.00;;;;;14.47;64.28;100100.25;5017757;28;45379;-65
2023/03/13 04:18:45;;;;;;;;;4.75;3.50;;;;;14.44;64.42;100090.66;5017632;28;46786;-65
2023/03/13 04:21:11;;;;;;;;;8.25;7.50;;;;;14.44;64.15;100109.16;5017463;28;45319;-66
2023/03/13 04:23:36;;;;;;;;;5.50;5.50;;;;;14.46;64.33;100091.47;5017950;28;45319;-66
2023/03/13 04:26:02;;;;;;;;;8.25;7.00;;;;;14.45;64.38;100084.44;5017629;28;45235;-66
2023/03/13 04:28:27;;;;;;;;;7.50;7.00;;;;;14.46;64.44;100083.53;5017607;28;45439;-66
2023/03/13 04:30:56;;;;;;;;;8.50;6.25;;;;;14.44;64.67;100077.44;5017505;28;45157;-66
2023/03/13 04:33:22;;;;;;;;;7.25;6.25;;;;;14.45;64.41;100062.44;5017860;28;45254;-66
2023/03/13 04:35:47;;;;;;;;;8.00;8.00;;;;;14.45;63.78;100059.78;5017230;28;45435;-66
2023/03/13 04:38:12;;;;;;;;;9.25;6.75;;;;;14.44;64.58;100056.28;5017521;28;45986;-65
2023/03/13 04:40:38;;;;;;;;;9.75;6.50;;;;;14.43;64.65;100051.91;5017368;28;45256;-65
2023/03/13 04:43:03;;;;;;;;;7.00;5.50;;;;;14.42;64.46;100066.06;5016070;28;48493;-65
2023/03/13 04:45:28;;;;;;;;;6.00;5.50;;;;;14.35;64.37;100050.50;5017263;28;45484;-65
2023/03/13 04:47:54;;;;;;;;;7.00;7.00;;;;;14.42;64.16;100060.75;5017549;28;45396;-65
2023/03/13 04:50:20;;;;;;;;;9.75;8.25;;;;;14.42;64.90;100060.75;5001876;28;45702;-65
2023/03/13 04:52:45;;;;;;;;;8.00;7.00;;;;;14.41;64.40;100064.31;5016262;28;45324;-65
2023/03/13 04:55:10;;;;;;;;;7.75;7.50;;;;;14.38;64.29;100071.56;5015781;28;47070;-65
2023/03/13 04:57:36;;;;;;;;;9.50;9.00;;;;;14.39;64.56;100066.19;5015949;28;45413;-66
2023/03/13 05:00:01;;;;;;;;;8.75;7.00;;;;;14.39;64.44;100095.28;5012373;28;45459;-65
2023/03/13 05:02:26;;;;;;;;;9.00;7.50;;;;;14.38;64.24;100079.47;4997610;28;46022;-66
2023/03/13 05:04:52;;;;;;;;;6.00;4.50;;;;;14.38;64.16;100064.47;5014290;28;45502;-65
2023/03/13 05:07:17;;;;;;;;;10.25;8.25;;;;;14.38;63.97;100082.97;5016903;28;46845;-65
2023/03/13 05:09:42;;;;;;;;;7.00;6.25;;;;;14.38;64.58;100075.03;5016706;28;48895;-65
2023/03/13 05:12:08;;;;;;;;;9.25;9.00;;;;;14.39;64.03;100075.88;5017290;28;45184;-65
2023/03/13 05:14:33;;;;;;;;;10.00;7.00;;;;;14.37;64.49;100073.31;5015641;28;45426;-65
2023/03/13 05:16:58;;;;;;;;;7.50;5.00;;;;;14.39;63.84;100041.53;5016940;28;47194;-65
2023/03/13 05:19:24;;;;;;;;;7.00;6.00;;;;;14.37;64.00;100081.25;5015581;28;45242;-65
2023/03/13 05:21:49;;;;;;;;;5.75;5.25;;;;;14.34;64.02;100064.66;5016832;28;45267;-65
2023/03/13 05:24:14;;;;;;;;;9.25;8.50;;;;;14.36;64.46;100063.66;5016737;28;45462;-65
2023/03/13 05:26:40;;;;;;;;;9.00;7.00;;;;;14.38;64.32;100068.91;5016952;28;45265;-65
2023/03/13 05:29:05;;;;;;;;;7.00;7.00;;;;;14.36;64.07;100071.59;5031976;28;45855;-65
2023/03/13 05:31:30;;;;;;;;;7.00;7.00;;;;;14.37;64.21;100073.31;5016897;28;45243;-65
2023/03/13 05:33:56;;;;;;;;;6.50;5.25;;;;;14.37;64.26;100073.31;5016901;28;45199;-65
2023/03/13 05:36:21;;;;;;;;;7.00;5.00;;;;;14.34;64.21;100070.81;5016539;28;46285;-65
2023/03/13 05:38:46;;;;;;;;;7.50;7.50;;;;;14.33;64.60;100066.44;5016624;28;45617;-65
2023/03/13 05:41:12;;;;;;;;;7.50;6.50;;;;;14.35;64.16;100077.81;5016807;28;45407;-65
2023/03/13 05:43:37;;;;;;;;;7.25;6.00;;;;;14.34;64.75;100062.00;5016323;28;52601;-66
2023/03/13 05:46:02;;;;;;;;;8.25;5.75;;;;;14.33;64.58;100050.59;5016520;28;47135;-66
2023/03/13 05:48:28;;;;;;;;;6.75;6.50;;;;;14.34;64.11;100051.44;5016347;28;45446;-66
2023/03/13 05:50:53;;;;;;;;;8.50;7.50;;;;;14.34;64.01;100056.72;4997497;28;45310;-66
2023/03/13 05:53:18;;;;;;;;;8.50;7.25;;;;;14.31;64.38;100065.63;5013205;28;45894;-65
2023/03/13 05:55:43;;;;;;;;;10.50;7.50;;;;;14.33;64.26;100066.44;5016166;28;46982;-66
2023/03/13 05:58:09;;;;;;;;;8.25;6.25;;;;;14.28;64.64;100056.03;5031532;28;45306;-65
2023/03/13 06:00:34;;;;;;;;;8.00;8.00;;;;;14.25;64.50;100045.63;5007147;28;45483;-65
2023/03/13 06:03:00;;;;;;;;;9.25;7.00;;;;;14.32;64.59;100053.28;5014434;28;45597;-65
2023/03/13 06:05:25;;;;;;;;;7.00;6.75;;;;;14.30;64.61;100041.00;5016097;28;48109;-65
2023/03/13 06:07:50;;;;;;;;;5.75;4.50;;;;;14.29;64.68;100043.72;5016859;28;45248;-65
2023/03/13 06:10:16;;;;;;;;;7.50;7.25;;;;;14.32;64.57;100040.94;5019462;28;45236;-65
2023/03/13 06:12:41;;;;;;;;;10.25;8.25;;;;;14.32;64.24;100035.63;5019187;28;45345;-65
2023/03/13 06:15:08;;;;;;;;;10.25;6.00;;;;;14.34;64.44;100035.56;5018731;28;49972;-65
2023/03/13 06:17:33;;;;;;;;;10.00;5.75;;;;;14.35;64.39;100037.31;5019126;28;45278;-65
2023/03/13 06:19:59;;;;;;;;;6.75;6.75;;;;;14.35;64.42;100046.09;5019198;28;45219;-65
2023/03/13 06:22:24;;;;;;;;;10.25;6.25;;;;;14.35;64.51;100035.53;5019221;28;45531;-65
2023/03/13 06:24:49;;;;;;;;;7.75;5.00;;;;;14.36;64.84;100039.03;5017741;28;47479;-66
2023/03/13 06:27:16;;;;;;;;;4.00;4.00;;;;;14.35;64.49;100035.53;5019140;28;45204;-66
2023/03/13 06:29:41;;;;;;;;;6.25;6.25;;;;;14.33;64.33;100018.88;5019597;28;45210;-67
2023/03/13 06:32:07;;;;;;;;;6.75;5.25;;;;;14.35;64.52;100018.78;5014407;28;45631;-65
2023/03/13 06:34:32;;;;;;;;;10.75;9.00;;;;;14.38;64.35;100026.63;4999539;28;46126;-66
2023/03/13 06:36:59;;;;;;;;;7.00;7.00;;;;;14.35;64.85;100035.53;5015006;28;45278;-66
2023/03/13 06:39:24;;;;;;;;;5.50;5.50;;;;;14.31;64.15;100023.34;5019242;28;45313;-66
2023/03/13 06:41:50;;;;;;;;;9.50;6.50;;;;;14.38;64.35;100023.97;5018852;28;45265;-65
2023/03/13 06:44:15;;;;;;;;;8.25;6.50;;;;;14.37;64.56;100024.91;5019045;28;45427;-65
2023/03/13 06:46:40;;;;;;;;;8.00;6.75;;;;;14.39;64.76;100033.59;5018366;28;54758;-66
2023/03/13 06:49:06;;;;;;;;;9.50;9.50;;;;;14.39;64.57;100037.13;5015017;28;45239;-66
2023/03/13 06:51:31;;;;;;;;;9.25;8.50;;;;;14.39;64.79;100023.03;5001107;28;45334;-65
2023/03/13 06:53:57;;;;;;;;;4.00;3.25;;;;;14.38;64.55;100016.03;5019107;28;45357;-66
2023/03/13 06:56:22;;;;;;;;;10.75;10.25;;;;;14.38;64.63;100010.75;5017393;28;45234;-65
2023/03/13 06:58:48;;;;;;;;;18.00;13.25;;;;;14.37;64.50;100006.41;5017594;28;45235;-65
2023/03/13 07:01:15;;;;;;;;;13.75;10.75;;;;;14.35;64.39;99995.00;5003886;28;45493;-66
2023/03/13 07:03:41;;;;;;;;;10.00;10.00;;;;;14.32;64.81;99998.66;5007584;28;45218;-66
2023/03/13 07:06:08;;;;;;;;;8.75;7.00;;;;;14.31;64.94;99996.91;5018257;28;45738;-66
2023/03/13 07:08:35;;;;;;;;;9.75;9.00;;;;;14.28;65.16;99992.63;5018904;28;45362;-66
2023/03/13 07:11:03;;;;;;;;;9.00;9.00;;;;;14.30;65.04;99992.56;5018407;28;45452;-65
2023/03/13 07:13:29;;;;;;;;;8.50;7.50;;;;;14.27;64.91;99982.97;5018694;28;46251;-65
2023/03/13 07:15:54;;;;;;;;;8.25;7.00;;;;;14.28;65.25;99982.06;5018248;28;45234;-66
2023/03/13 07:18:21;;;;;;;;;5.75;4.50;;;;;14.29;64.55;99985.56;5017431;28;45328;-65
2023/03/13 07:20:54;;;;;;;;;7.75;7.75;;;;;14.27;64.71;99980.31;5017065;28;45509;-65
2023/03/13 07:23:21;;;;;;;;;11.50;7.00;;;;;14.24;64.96;99975.19;5018650;28;46384;-65
2023/03/13 07:26:04;;;;;;;;;7.00;6.00;;;;;14.27;65.16;99982.97;5018149;28;45230;-65
2023/03/13 07:28:30;;;;;;;;;6.25;6.00;;;;;14.25;64.82;99976.91;5018469;28;45253;-66
2023/03/13 07:31:06;;;;;;;;;7.00;5.25;;;;;14.28;64.81;99986.50;5018259;28;45552;-65
2023/03/13 07:33:32;;;;;;;;;8.25;7.50;;;;;14.29;65.00;99989.06;5018384;28;45871;-65
2023/03/13 07:35:57;;;;;;;;;5.75;5.25;;;;;14.30;65.01;99976.69;5018013;28;45377;-65
2023/03/13 07:38:22;;;;;;;;;8.50;6.50;;;;;14.28;64.91;99975.91;5018398;28;45332;-65
2023/03/13 07:40:50;;;;;;;;;8.75;8.75;;;;;14.30;64.91;99981.97;5018131;28;45543;-65
2023/03/13 07:43:15;;;;;;;;;5.25;5.25;;;;;14.30;65.59;99969.66;5033515;28;47008;-65
2023/03/13 07:45:52;;;;;;;;;8.25;7.00;;;;;14.32;64.93;99966.09;5016839;28;45378;-65
2023/03/13 07:48:18;;;;;;;;;9.75;9.00;;;;;14.35;64.72;99963.28;5018112;28;45265;-65
2023/03/13 07:50:44;;;;;;;;;7.50;7.00;;;;;14.36;64.98;99955.28;5000939;28;45535;-65
2023/03/13 07:53:09;;;;;;;;;6.75;5.75;;;;;14.34;64.64;99954.53;5013626;28;46033;-65
2023/03/13 07:55:34;;;;;;;;;5.25;5.25;;;;;14.37;64.94;99959.66;5016887;28;45293;-65
2023/03/13 07:58:00;;;;;;;;;8.25;8.00;;;;;14.37;65.22;99951.72;5018206;28;45225;-65
2023/03/13 08:00:25;;;;;;;;;8.75;6.75;;;;;14.37;64.89;99948.25;5009983;28;45162;-65
2023/03/13 08:02:50;;;;;;;;;5.50;4.50;;;;;14.39;65.21;99946.38;5015271;28;46315;-65
2023/03/13 08:05:16;;;;;;;;;7.25;6.50;;;;;14.40;64.73;99945.47;5017959;28;45340;-65
2023/03/13 08:07:43;;;;;;;;;5.75;5.75;;;;;14.40;64.87;99932.25;5016657;28;45259;-65
2023/03/13 08:10:09;;;;;;;;;7.50;6.50;;;;;14.42;64.93;99947.09;5017977;28;45451;-65
2023/03/13 08:12:35;;;;;;;;;6.25;5.50;;;;;14.41;64.92;99936.59;5017561;28;46332;-65
2023/03/13 08:15:00;;;;;;;;;6.00;4.75;;;;;14.41;65.32;99920.75;5017909;28;45341;-65
2023/03/13 08:17:28;;;;;;;;;4.75;3.75;;;;;14.42;64.93;99928.59;5017964;27;45228;-65
2023/03/13 08:19:54;;;;;;;;;9.00;9.00;;;;;14.45;65.22;99919.69;5017597;28;45343;-65
2023/03/13 08:22:19;;;;;;;;;8.00;6.00;;;;;14.45;64.94;99917.03;5017530;28;45890;-65
2023/03/13 08:24:44;;;;;;;;;9.75;9.75;;;;;14.49;64.91;99926.56;5017573;28;49748;-65
2023/03/13 08:27:10;;;;;;;;;6.50;6.50;;;;;14.46;64.81;99921.41;5017871;28;45220;-65
2023/03/13 08:29:35;;;;;;;;;9.00;5.25;;;;;14.50;64.76;99917.69;5017732;28;45506;-65
2023/03/13 08:32:00;;;;;;;;;9.00;7.75;;;;;14.51;65.34;99898.28;5017416;28;46103;-65
2023/03/13 08:34:26;;;;;;;;;5.75;5.75;;;;;14.54;65.02;99914.00;5017732;28;49223;-65
2023/03/13 08:36:51;;;;;;;;;8.25;7.50;;;;;14.57;64.76;99908.56;5017375;28;45666;-65
2023/03/13 08:39:19;;;;;;;;;4.50;4.50;;;;;14.58;64.84;99885.66;5016231;28;45373;-65
2023/03/13 08:41:44;;;;;;;;;9.75;6.00;;;;;14.60;65.18;99907.59;5017326;28;46178;-65
2023/03/13 08:44:12;;;;;;;;;5.75;4.25;;;;;14.62;64.91;99906.59;5017534;28;45263;-65
2023/03/13 08:46:38;;;;;;;;;5.00;3.75;;;;;14.65;64.93;99915.34;5017641;28;45313;-64
2023/03/13 08:49:06;;;;;;;;;7.00;5.75;;;;;14.68;64.90;99904.63;5013758;28;45350;-65
2023/03/13 08:51:32;;;;;;;;;4.50;3.75;;;;;14.69;64.87;99901.94;4999397;28;46139;-65
2023/03/13 08:53:57;;;;;;;;;10.00;5.25;;;;;14.71;64.20;99893.94;5017399;28;45469;-65
2023/03/13 08:56:26;;;;;;;;;6.25;5.25;;;;;14.71;64.67;99891.28;5017227;28;45434;-65
2023/03/13 08:58:54;;;;;;;;;5.25;4.50;;;;;14.75;64.91;99898.13;5017365;28;45378;-65
2023/03/13 09:01:21;;;;;;;;;6.00;5.50;;;;;14.74;64.45;99920.22;5001511;28;45425;-65
2023/03/13 09:03:47;;;;;;;;;4.50;4.50;;;;;14.73;64.80;99894.69;5006695;28;45385;-64
2023/03/13 09:06:12;;;;;;;;;5.25;4.25;;;;;14.77;64.62;99872.50;5016541;28;45263;-65
2023/03/13 09:08:40;;;;;;;;;6.25;6.25;;;;;14.81;64.76;99873.22;5015801;28;45496;-65
2023/03/13 09:11:10;;;;;;;;;7.00;4.75;;;;;14.80;64.40;99875.00;5016787;28;45456;-64
2023/03/13 09:13:38;;;;;;;;;6.75;6.00;;;;;14.84;64.70;99866.00;5017348;28;45423;-65
2023/03/13 09:16:07;;;;;;;;;3.50;3.50;;;;;14.86;64.71;99865.94;5016905;28;45374;-65
2023/03/13 09:18:33;;;;;;;;;5.50;4.00;;;;;14.86;64.70;99858.00;5016944;28;45307;-65
2023/03/13 09:20:58;;;;;;;;;5.00;4.50;;;;;14.88;64.84;99849.06;5016449;28;45251;-65
2023/03/13 09:23:24;;;;;;;;;5.00;5.00;;;;;14.88;64.72;99838.47;5017035;28;45326;-65
2023/03/13 09:25:54;;;;;;;;;6.50;5.25;;;;;14.90;65.03;99831.31;5017004;27;45219;-65
2023/03/13 09:28:20;;;;;;;;;6.00;6.00;;;;;14.91;64.78;99830.38;5016960;28;45552;-65
2023/03/13 09:30:45;;;;;;;;;5.25;5.25;;;;;14.91;64.72;99818.97;5016506;28;45852;-65
2023/03/13 09:33:11;;;;;;;;;7.50;3.75;;;;;14.93;64.58;99810.03;5016695;28;56994;-65
2023/03/13 09:35:39;;;;;;;;;4.50;4.50;;;;;14.97;64.78;99826.63;5016514;28;45332;-65
2023/03/13 09:38:05;;;;;;;;;6.50;6.50;;;;;14.98;64.41;99838.03;5016919;28;45167;-65
2023/03/13 09:40:37;;;;;;;;;6.25;5.75;;;;;15.00;64.83;99820.31;5016339;28;45286;-64
2023/03/13 09:43:03;;;;;;;;;7.75;7.25;;;;;15.03;64.85;99828.97;5017622;28;45391;-65
2023/03/13 09:45:39;;;;;;;;;5.75;5.75;;;;;15.04;64.85;99811.28;5019706;28;45214;-65
2023/03/13 09:48:23;;;;;;;;;6.00;6.00;;;;;15.05;64.92;99807.72;5019777;28;45246;-65
2023/03/13 09:51:10;;;;;;;;;4.50;3.25;;;;;15.06;64.59;99809.44;5001526;28;45229;-65
2023/03/13 09:53:48;;;;;;;;;5.00;5.00;;;;;15.06;64.72;99806.81;5018458;28;45334;-65
2023/03/13 09:56:22;;;;;;;;;4.00;4.00;;;;;15.07;65.18;99803.22;5019373;28;45268;-65
2023/03/13 09:59:01;;;;;;;;;4.00;4.00;;;;;15.08;65.27;99807.56;5018158;28;45322;-65
2023/03/13 10:01:32;;;;;;;;;3.75;3.00;;;;;15.09;65.07;99793.41;5002863;28;45413;-65
2023/03/13 10:04:10;;;;;;;;;7.00;5.50;;;;;15.11;65.24;99781.81;5010879;28;45341;-65
2023/03/13 10:06:41;;;;;;;;;7.00;7.00;;;;;15.16;65.29;99773.66;5019194;28;45385;-65
2023/03/13 10:09:29;;;;;;;;;5.25;5.25;;;;;15.19;64.83;99802.63;5019065;28;45380;-65
2023/03/13 10:12:35;;;;;;;;;3.75;3.75;;;;;15.21;65.04;99791.97;5019285;28;46178;-65
2023/03/13 10:15:06;;;;;;;;;4.25;4.00;;;;;15.24;65.38;99803.28;4981039;28;45469;-65
2023/03/13 10:17:38;;;;;;;;;4.50;2.25;;;;;15.24;65.09;99803.28;5016028;28;45598;-65
2023/03/13 10:20:13;;;;;;;;;3.75;3.75;;;;;15.28;64.89;99796.91;5018971;28;45387;-65
2023/03/13 10:22:42;;;;;;;;;4.25;4.00;;;;;15.27;65.34;99787.22;5018864;28;46317;-65
2023/03/13 10:25:21;;;;;;;;;4.00;4.00;;;;;15.32;65.28;99780.84;5019231;28;45305;-65
2023/03/13 10:27:50;;;;;;;;;3.25;3.00;;;;;15.33;65.11;99775.47;5019408;28;45348;-65
2023/03/13 10:30:35;;;;;;;;;5.00;5.00;;;;;15.31;65.25;99750.00;5019174;28;45486;-64
2023/03/13 10:33:16;;;;;;;;;3.50;2.75;;;;;15.30;65.14;99780.09;5020658;27;45285;-64
2023/03/13 10:35:42;;;;;;;;;4.25;4.25;;;;;15.30;65.34;99777.44;5017332;28;45433;-64
2023/03/13 10:38:16;;;;;;;;;2.75;2.75;;;;;15.26;65.37;99772.28;5034448;28;45328;-64
2023/03/13 10:40:41;;;;;;;;;3.25;2.25;;;;;15.27;65.38;99762.56;5018911;28;45364;-64
2023/03/13 10:43:19;;;;;;;;;2.50;2.50;;;;;15.24;65.24;99755.63;5018736;28;46216;-64
2023/03/13 10:45:44;;;;;;;;;2.25;0.00;;;;;15.21;65.31;99753.13;5019082;28;45294;-64
2023/03/13 10:48:20;;;;;;;;;7.75;5.75;;;;;15.19;65.34;99757.63;5018782;28;45467;-64
2023/03/13 10:50:51;;;;;;;;;5.50;3.25;;;;;15.18;65.28;99750.66;5002149;28;45247;-64
2023/03/13 10:53:32;;;;;;;;;4.00;3.25;;;;;15.15;65.76;99750.78;5013783;28;46353;-64
2023/03/13 10:56:09;;;;;;;;;4.25;4.25;;;;;15.15;65.14;99787.81;5016178;28;45473;-65
2023/03/13 10:58:39;;;;;;;;;3.50;3.50;;;;;15.09;65.46;99759.88;5018754;28;45260;-63
2023/03/13 11:01:21;;;;;;;;;3.50;3.50;;;;;15.11;65.59;99741.28;5005209;28;45227;-63
2023/03/13 11:03:49;;;;;;;;;2.75;2.25;;;;;15.07;65.47;99745.88;5008045;28;45335;-64
2023/03/13 11:06:35;;;;;;;;;3.50;2.25;;;;;15.10;65.37;99724.53;5018389;28;45222;-65
2023/03/13 11:09:12;;;;;;;;;2.25;2.25;;;;;15.12;65.39;99724.47;5018363;28;45220;-63
2023/03/13 11:12:10;;;;;;;;;3.75;3.75;;;;;15.17;65.91;99706.59;5018730;28;45382;-63
2023/03/13 11:14:35;;;;;;;;;2.75;2.75;;;;;15.24;66.01;99717.72;5018013;28;46405;-65
2023/03/13 11:17:10;;;;;;;;;6.25;5.00;;;;;15.38;66.06;99732.91;5018486;28;45360;-65
2023/03/13 11:19:52;;;;;;;;;3.75;2.50;;;;;15.51;66.21;99726.06;5018344;28;45409;-65
2023/03/13 11:22:35;;;;;;;;;5.25;4.75;;;;;15.65;66.79;99724.50;5018545;28;45390;-66
2023/03/13 11:25:19;;;;;;;;;5.25;5.00;;;;;15.77;66.25;99739.75;5018304;28;46129;-64
2023/03/13 11:27:57;;;;;;;;;6.75;5.75;;;;;15.90;66.36;99735.56;5018224;28;45222;-66
2023/03/13 11:31:03;;;;;;;;;0.75;0.75;;;;;16.00;66.55;99764.22;5018426;28;45495;-65